sensor_id;sensor_type;location;lat;lon;timestamp;P1;durP1;ratioP1;P2;durP2;ratioP2
5171;SDS011;2605;49.770;9.868;2022-12-15T00:01:27;23.30;;;12.30;;
5171;SDS011;2605;49.770;9.868;2022-12-15T00:04:14;33.03;;;17.40;;
5171;SDS011;2605;49.770;9.868;2022-12-15T00:06:58;37.50;;;19.70;;
5171;SDS011;2605;49.770;9.868;2022-12-15T00:09:42;30.83;;;18.93;;
5171;SDS011;2605;49.770;9.868;2022-12-15T00:12:26;37.40;;;20.77;;
5171;SDS011;2605;49.770;9.868;2022-12-15T00:15:10;30.73;;;19.40;;
5171;SDS011;2605;49.770;9.868;2022-12-15T00:17:54;34.30;;;19.53;;
5171;SDS011;2605;49.770;9.868;2022-12-15T00:20:38;36.70;;;19.47;;
5171;SDS011;2605;49.770;9.868;2022-12-15T00:23:22;34.20;;;22.10;;
5171;SDS011;2605;49.770;9.868;2022-12-15T00:26:06;37.97;;;19.80;;
5171;SDS011;2605;49.770;9.868;2022-12-15T00:28:51;29.27;;;19.00;;
5171;SDS011;2605;49.770;9.868;2022-12-15T00:31:35;32.90;;;19.87;;
5171;SDS011;2605;49.770;9.868;2022-12-15T00:34:19;32.50;;;19.37;;
5171;SDS011;2605;49.770;9.868;2022-12-15T00:37:03;32.20;;;20.60;;
5171;SDS011;2605;49.770;9.868;2022-12-15T00:39:47;37.30;;;22.70;;
5171;SDS011;2605;49.770;9.868;2022-12-15T00:42:22;37.60;;;23.30;;
5171;SDS011;2605;49.770;9.868;2022-12-15T00:44:49;36.60;;;22.10;;
5171;SDS011;2605;49.770;9.868;2022-12-15T00:47:15;36.50;;;22.00;;
5171;SDS011;2605;49.770;9.868;2022-12-15T00:49:40;34.90;;;22.00;;
5171;SDS011;2605;49.770;9.868;2022-12-15T00:52:24;34.70;;;22.47;;
5171;SDS011;2605;49.770;9.868;2022-12-15T00:55:08;38.20;;;20.90;;
5171;SDS011;2605;49.770;9.868;2022-12-15T00:57:52;32.37;;;18.13;;
5171;SDS011;2605;49.770;9.868;2022-12-15T01:00:36;28.20;;;18.43;;
5171;SDS011;2605;49.770;9.868;2022-12-15T01:03:21;30.97;;;20.10;;
5171;SDS011;2605;49.770;9.868;2022-12-15T01:06:10;32.73;;;19.23;;
5171;SDS011;2605;49.770;9.868;2022-12-15T01:08:57;33.60;;;19.77;;
5171;SDS011;2605;49.770;9.868;2022-12-15T01:11:41;29.53;;;18.80;;
5171;SDS011;2605;49.770;9.868;2022-12-15T01:14:26;32.90;;;18.80;;
5171;SDS011;2605;49.770;9.868;2022-12-15T01:17:10;29.53;;;20.80;;
5171;SDS011;2605;49.770;9.868;2022-12-15T01:19:55;32.50;;;19.67;;
5171;SDS011;2605;49.770;9.868;2022-12-15T01:22:39;30.00;;;18.63;;
5171;SDS011;2605;49.770;9.868;2022-12-15T01:25:05;29.70;;;20.47;;
5171;SDS011;2605;49.770;9.868;2022-12-15T01:27:32;31.47;;;20.77;;
5171;SDS011;2605;49.770;9.868;2022-12-15T01:29:58;32.17;;;21.67;;
5171;SDS011;2605;49.770;9.868;2022-12-15T01:32:24;30.83;;;20.77;;
5171;SDS011;2605;49.770;9.868;2022-12-15T01:34:49;38.57;;;20.60;;
5171;SDS011;2605;49.770;9.868;2022-12-15T01:37:15;29.70;;;19.93;;
5171;SDS011;2605;49.770;9.868;2022-12-15T01:39:41;37.20;;;19.70;;
5171;SDS011;2605;49.770;9.868;2022-12-15T01:42:28;26.27;;;18.60;;
5171;SDS011;2605;49.770;9.868;2022-12-15T01:45:17;30.87;;;20.43;;
5171;SDS011;2605;49.770;9.868;2022-12-15T01:50:38;26.10;;;17.90;;
5171;SDS011;2605;49.770;9.868;2022-12-15T01:53:08;29.47;;;18.53;;
5171;SDS011;2605;49.770;9.868;2022-12-15T01:55:36;26.53;;;16.73;;
5171;SDS011;2605;49.770;9.868;2022-12-15T01:58:05;35.40;;;19.23;;
5171;SDS011;2605;49.770;9.868;2022-12-15T02:00:33;32.90;;;22.60;;
5171;SDS011;2605;49.770;9.868;2022-12-15T02:02:59;31.17;;;19.70;;
5171;SDS011;2605;49.770;9.868;2022-12-15T02:05:26;26.10;;;18.10;;
5171;SDS011;2605;49.770;9.868;2022-12-15T02:07:53;34.07;;;21.00;;
5171;SDS011;2605;49.770;9.868;2022-12-15T02:10:19;30.30;;;20.80;;
5171;SDS011;2605;49.770;9.868;2022-12-15T02:15:24;25.67;;;16.90;;
5171;SDS011;2605;49.770;9.868;2022-12-15T02:29:50;31.87;;;19.00;;
5171;SDS011;2605;49.770;9.868;2022-12-15T02:32:47;32.07;;;20.60;;
5171;SDS011;2605;49.770;9.868;2022-12-15T02:35:36;28.53;;;17.03;;
5171;SDS011;2605;49.770;9.868;2022-12-15T02:38:06;26.47;;;18.40;;
5171;SDS011;2605;49.770;9.868;2022-12-15T02:40:33;28.63;;;18.83;;
5171;SDS011;2605;49.770;9.868;2022-12-15T02:42:58;27.30;;;18.30;;
5171;SDS011;2605;49.770;9.868;2022-12-15T02:45:32;25.93;;;17.10;;
5171;SDS011;2605;49.770;9.868;2022-12-15T02:48:29;26.57;;;18.90;;
5171;SDS011;2605;49.770;9.868;2022-12-15T02:54:06;27.80;;;18.33;;
5171;SDS011;2605;49.770;9.868;2022-12-15T02:56:50;26.87;;;17.90;;
5171;SDS011;2605;49.770;9.868;2022-12-15T02:59:31;28.80;;;18.90;;
5171;SDS011;2605;49.770;9.868;2022-12-15T03:02:07;35.30;;;19.13;;
5171;SDS011;2605;49.770;9.868;2022-12-15T03:04:34;30.40;;;20.03;;
5171;SDS011;2605;49.770;9.868;2022-12-15T03:07:01;26.57;;;19.40;;
5171;SDS011;2605;49.770;9.868;2022-12-15T03:09:29;30.80;;;19.47;;
5171;SDS011;2605;49.770;9.868;2022-12-15T03:11:55;29.73;;;19.17;;
5171;SDS011;2605;49.770;9.868;2022-12-15T03:14:21;31.53;;;20.00;;
5171;SDS011;2605;49.770;9.868;2022-12-15T03:16:49;30.23;;;19.23;;
5171;SDS011;2605;49.770;9.868;2022-12-15T03:19:15;31.83;;;19.90;;
5171;SDS011;2605;49.770;9.868;2022-12-15T03:21:40;31.00;;;19.83;;
5171;SDS011;2605;49.770;9.868;2022-12-15T03:24:06;28.53;;;18.50;;
5171;SDS011;2605;49.770;9.868;2022-12-15T03:26:31;28.83;;;19.70;;
5171;SDS011;2605;49.770;9.868;2022-12-15T03:29:00;32.93;;;19.70;;
5171;SDS011;2605;49.770;9.868;2022-12-15T03:31:26;33.03;;;20.20;;
5171;SDS011;2605;49.770;9.868;2022-12-15T03:33:51;34.63;;;21.00;;
5171;SDS011;2605;49.770;9.868;2022-12-15T03:36:17;29.43;;;19.53;;
5171;SDS011;2605;49.770;9.868;2022-12-15T03:38:42;33.63;;;19.60;;
5171;SDS011;2605;49.770;9.868;2022-12-15T03:41:08;30.20;;;20.57;;
5171;SDS011;2605;49.770;9.868;2022-12-15T03:43:33;29.57;;;19.10;;
5171;SDS011;2605;49.770;9.868;2022-12-15T03:45:59;31.50;;;19.30;;
5171;SDS011;2605;49.770;9.868;2022-12-15T03:48:25;29.60;;;18.30;;
5171;SDS011;2605;49.770;9.868;2022-12-15T03:50:51;28.43;;;17.40;;
5171;SDS011;2605;49.770;9.868;2022-12-15T03:53:16;27.40;;;19.37;;
5171;SDS011;2605;49.770;9.868;2022-12-15T03:55:42;28.93;;;18.97;;
5171;SDS011;2605;49.770;9.868;2022-12-15T03:58:07;26.37;;;18.17;;
5171;SDS011;2605;49.770;9.868;2022-12-15T04:00:33;25.73;;;18.07;;
5171;SDS011;2605;49.770;9.868;2022-12-15T04:02:58;25.00;;;17.43;;
5171;SDS011;2605;49.770;9.868;2022-12-15T04:05:25;31.13;;;17.67;;
5171;SDS011;2605;49.770;9.868;2022-12-15T04:07:53;27.43;;;18.27;;
5171;SDS011;2605;49.770;9.868;2022-12-15T04:10:20;29.10;;;17.77;;
5171;SDS011;2605;49.770;9.868;2022-12-15T04:12:46;27.53;;;17.80;;
5171;SDS011;2605;49.770;9.868;2022-12-15T04:15:12;32.47;;;17.97;;
5171;SDS011;2605;49.770;9.868;2022-12-15T04:17:38;25.60;;;17.43;;
5171;SDS011;2605;49.770;9.868;2022-12-15T04:20:04;26.47;;;17.67;;
5171;SDS011;2605;49.770;9.868;2022-12-15T04:22:33;29.40;;;20.27;;
5171;SDS011;2605;49.770;9.868;2022-12-15T04:25:11;36.07;;;21.53;;
5171;SDS011;2605;49.770;9.868;2022-12-15T04:27:56;30.97;;;19.40;;
5171;SDS011;2605;49.770;9.868;2022-12-15T04:30:41;30.70;;;18.83;;
5171;SDS011;2605;49.770;9.868;2022-12-15T04:33:29;31.33;;;20.57;;
5171;SDS011;2605;49.770;9.868;2022-12-15T04:36:14;26.77;;;18.43;;
5171;SDS011;2605;49.770;9.868;2022-12-15T04:38:59;27.37;;;19.00;;
5171;SDS011;2605;49.770;9.868;2022-12-15T04:41:43;28.33;;;19.63;;
5171;SDS011;2605;49.770;9.868;2022-12-15T04:44:28;30.77;;;19.07;;
5171;SDS011;2605;49.770;9.868;2022-12-15T04:47:13;30.87;;;19.47;;
5171;SDS011;2605;49.770;9.868;2022-12-15T04:49:56;28.83;;;18.10;;
5171;SDS011;2605;49.770;9.868;2022-12-15T04:52:40;27.53;;;18.47;;
5171;SDS011;2605;49.770;9.868;2022-12-15T04:55:24;35.80;;;20.80;;
5171;SDS011;2605;49.770;9.868;2022-12-15T04:58:08;27.00;;;17.77;;
5171;SDS011;2605;49.770;9.868;2022-12-15T05:00:56;34.03;;;21.20;;
5171;SDS011;2605;49.770;9.868;2022-12-15T05:03:41;33.60;;;20.67;;
5171;SDS011;2605;49.770;9.868;2022-12-15T05:06:25;25.43;;;18.07;;
5171;SDS011;2605;49.770;9.868;2022-12-15T05:09:09;28.13;;;18.17;;
5171;SDS011;2605;49.770;9.868;2022-12-15T05:11:53;31.53;;;19.63;;
5171;SDS011;2605;49.770;9.868;2022-12-15T05:14:37;31.97;;;18.27;;
5171;SDS011;2605;49.770;9.868;2022-12-15T05:17:21;26.87;;;17.30;;
5171;SDS011;2605;49.770;9.868;2022-12-15T05:20:05;24.83;;;17.23;;
5171;SDS011;2605;49.770;9.868;2022-12-15T05:22:53;22.30;;;15.97;;
5171;SDS011;2605;49.770;9.868;2022-12-15T05:25:38;31.73;;;18.37;;
5171;SDS011;2605;49.770;9.868;2022-12-15T05:28:23;22.77;;;16.50;;
5171;SDS011;2605;49.770;9.868;2022-12-15T05:31:07;23.80;;;16.50;;
5171;SDS011;2605;49.770;9.868;2022-12-15T05:33:55;31.13;;;18.67;;
5171;SDS011;2605;49.770;9.868;2022-12-15T05:36:21;31.50;;;18.10;;
5171;SDS011;2605;49.770;9.868;2022-12-15T05:38:48;28.00;;;18.37;;
5171;SDS011;2605;49.770;9.868;2022-12-15T05:41:14;31.80;;;19.97;;
5171;SDS011;2605;49.770;9.868;2022-12-15T05:43:39;30.63;;;17.50;;
5171;SDS011;2605;49.770;9.868;2022-12-15T05:46:05;28.17;;;17.80;;
5171;SDS011;2605;49.770;9.868;2022-12-15T05:48:31;26.47;;;17.97;;
5171;SDS011;2605;49.770;9.868;2022-12-15T05:50:56;33.83;;;19.47;;
5171;SDS011;2605;49.770;9.868;2022-12-15T05:53:26;33.90;;;20.33;;
5171;SDS011;2605;49.770;9.868;2022-12-15T05:56:01;35.47;;;24.07;;
5171;SDS011;2605;49.770;9.868;2022-12-15T05:58:32;43.53;;;22.47;;
5171;SDS011;2605;49.770;9.868;2022-12-15T06:01:07;44.40;;;26.87;;
5171;SDS011;2605;49.770;9.868;2022-12-15T06:03:35;34.33;;;22.83;;
5171;SDS011;2605;49.770;9.868;2022-12-15T06:06:04;38.57;;;22.73;;
5171;SDS011;2605;49.770;9.868;2022-12-15T06:08:31;36.40;;;21.87;;
5171;SDS011;2605;49.770;9.868;2022-12-15T06:10:58;31.77;;;20.90;;
5171;SDS011;2605;49.770;9.868;2022-12-15T06:13:24;26.20;;;18.53;;
5171;SDS011;2605;49.770;9.868;2022-12-15T06:15:58;32.77;;;19.53;;
5171;SDS011;2605;49.770;9.868;2022-12-15T06:18:24;30.20;;;20.17;;
5171;SDS011;2605;49.770;9.868;2022-12-15T06:21:02;34.13;;;23.07;;
5171;SDS011;2605;49.770;9.868;2022-12-15T06:23:30;35.73;;;22.27;;
5171;SDS011;2605;49.770;9.868;2022-12-15T06:26:05;39.67;;;24.20;;
5171;SDS011;2605;49.770;9.868;2022-12-15T06:28:39;36.77;;;22.47;;
5171;SDS011;2605;49.770;9.868;2022-12-15T06:31:06;32.20;;;22.17;;
5171;SDS011;2605;49.770;9.868;2022-12-15T06:33:33;24.57;;;18.10;;
5171;SDS011;2605;49.770;9.868;2022-12-15T06:36:03;28.57;;;19.60;;
5171;SDS011;2605;49.770;9.868;2022-12-15T06:38:31;30.40;;;20.70;;
5171;SDS011;2605;49.770;9.868;2022-12-15T06:40:58;29.50;;;19.20;;
5171;SDS011;2605;49.770;9.868;2022-12-15T06:43:25;31.40;;;20.93;;
5171;SDS011;2605;49.770;9.868;2022-12-15T06:45:52;29.93;;;21.97;;
5171;SDS011;2605;49.770;9.868;2022-12-15T06:48:18;29.93;;;22.17;;
5171;SDS011;2605;49.770;9.868;2022-12-15T06:50:44;34.00;;;21.40;;
5171;SDS011;2605;49.770;9.868;2022-12-15T06:53:11;39.33;;;24.47;;
5171;SDS011;2605;49.770;9.868;2022-12-15T06:55:37;34.97;;;20.60;;
5171;SDS011;2605;49.770;9.868;2022-12-15T06:58:03;29.00;;;19.73;;
5171;SDS011;2605;49.770;9.868;2022-12-15T07:00:29;35.13;;;20.20;;
5171;SDS011;2605;49.770;9.868;2022-12-15T07:02:54;30.67;;;20.37;;
5171;SDS011;2605;49.770;9.868;2022-12-15T07:05:20;32.33;;;19.50;;
5171;SDS011;2605;49.770;9.868;2022-12-15T07:07:45;30.13;;;19.40;;
5171;SDS011;2605;49.770;9.868;2022-12-15T07:10:11;29.90;;;21.67;;
5171;SDS011;2605;49.770;9.868;2022-12-15T07:12:37;31.57;;;19.10;;
5171;SDS011;2605;49.770;9.868;2022-12-15T07:15:03;37.13;;;20.80;;
5171;SDS011;2605;49.770;9.868;2022-12-15T07:17:29;32.03;;;20.60;;
5171;SDS011;2605;49.770;9.868;2022-12-15T07:19:54;32.30;;;21.50;;
5171;SDS011;2605;49.770;9.868;2022-12-15T07:22:20;41.40;;;22.50;;
5171;SDS011;2605;49.770;9.868;2022-12-15T07:24:46;35.57;;;24.60;;
5171;SDS011;2605;49.770;9.868;2022-12-15T07:27:12;34.17;;;22.23;;
5171;SDS011;2605;49.770;9.868;2022-12-15T07:29:38;42.20;;;24.63;;
5171;SDS011;2605;49.770;9.868;2022-12-15T07:32:06;40.80;;;25.20;;
5171;SDS011;2605;49.770;9.868;2022-12-15T07:34:32;39.42;;;24.80;;
5171;SDS011;2605;49.770;9.868;2022-12-15T07:36:57;33.33;;;23.50;;
5171;SDS011;2605;49.770;9.868;2022-12-15T07:39:23;34.27;;;20.70;;
5171;SDS011;2605;49.770;9.868;2022-12-15T07:41:51;32.97;;;22.60;;
5171;SDS011;2605;49.770;9.868;2022-12-15T07:44:16;32.97;;;21.47;;
5171;SDS011;2605;49.770;9.868;2022-12-15T07:46:42;34.90;;;22.77;;
5171;SDS011;2605;49.770;9.868;2022-12-15T07:49:11;40.07;;;23.40;;
5171;SDS011;2605;49.770;9.868;2022-12-15T07:51:37;42.47;;;21.80;;
5171;SDS011;2605;49.770;9.868;2022-12-15T07:54:02;36.33;;;22.40;;
5171;SDS011;2605;49.770;9.868;2022-12-15T07:56:31;38.83;;;21.97;;
5171;SDS011;2605;49.770;9.868;2022-12-15T07:58:57;33.80;;;19.90;;
5171;SDS011;2605;49.770;9.868;2022-12-15T08:01:23;34.73;;;19.53;;
5171;SDS011;2605;49.770;9.868;2022-12-15T08:03:49;27.70;;;17.37;;
5171;SDS011;2605;49.770;9.868;2022-12-15T08:06:14;30.33;;;20.07;;
5171;SDS011;2605;49.770;9.868;2022-12-15T08:08:40;30.97;;;18.77;;
5171;SDS011;2605;49.770;9.868;2022-12-15T08:11:09;40.77;;;21.53;;
5171;SDS011;2605;49.770;9.868;2022-12-15T08:13:36;31.70;;;22.23;;
5171;SDS011;2605;49.770;9.868;2022-12-15T08:16:03;31.67;;;20.50;;
5171;SDS011;2605;49.770;9.868;2022-12-15T08:18:28;37.47;;;21.20;;
5171;SDS011;2605;49.770;9.868;2022-12-15T08:20:54;44.37;;;24.77;;
5171;SDS011;2605;49.770;9.868;2022-12-15T08:23:20;42.17;;;24.53;;
5171;SDS011;2605;49.770;9.868;2022-12-15T08:25:45;48.00;;;26.60;;
5171;SDS011;2605;49.770;9.868;2022-12-15T08:28:11;44.33;;;24.90;;
5171;SDS011;2605;49.770;9.868;2022-12-15T08:30:40;39.27;;;25.40;;
5171;SDS011;2605;49.770;9.868;2022-12-15T08:33:05;44.07;;;25.37;;
5171;SDS011;2605;49.770;9.868;2022-12-15T08:35:31;41.33;;;24.30;;
5171;SDS011;2605;49.770;9.868;2022-12-15T08:37:57;36.23;;;23.17;;
5171;SDS011;2605;49.770;9.868;2022-12-15T08:40:24;37.47;;;24.07;;
5171;SDS011;2605;49.770;9.868;2022-12-15T08:42:50;32.70;;;22.73;;
5171;SDS011;2605;49.770;9.868;2022-12-15T08:45:15;45.93;;;24.73;;
5171;SDS011;2605;49.770;9.868;2022-12-15T08:47:41;56.50;;;30.80;;
5171;SDS011;2605;49.770;9.868;2022-12-15T08:50:06;49.50;;;25.43;;
5171;SDS011;2605;49.770;9.868;2022-12-15T08:52:33;38.77;;;25.23;;
5171;SDS011;2605;49.770;9.868;2022-12-15T08:54:58;40.37;;;24.57;;
5171;SDS011;2605;49.770;9.868;2022-12-15T08:57:24;41.00;;;26.57;;
5171;SDS011;2605;49.770;9.868;2022-12-15T08:59:49;44.00;;;25.20;;
5171;SDS011;2605;49.770;9.868;2022-12-15T09:02:16;43.30;;;24.67;;
5171;SDS011;2605;49.770;9.868;2022-12-15T09:04:41;36.37;;;24.80;;
5171;SDS011;2605;49.770;9.868;2022-12-15T09:07:09;38.83;;;24.87;;
5171;SDS011;2605;49.770;9.868;2022-12-15T09:09:34;35.23;;;24.63;;
5171;SDS011;2605;49.770;9.868;2022-12-15T09:12:00;44.30;;;23.63;;
5171;SDS011;2605;49.770;9.868;2022-12-15T09:14:25;34.63;;;22.50;;
5171;SDS011;2605;49.770;9.868;2022-12-15T09:16:51;40.37;;;25.37;;
5171;SDS011;2605;49.770;9.868;2022-12-15T09:19:17;40.20;;;24.20;;
5171;SDS011;2605;49.770;9.868;2022-12-15T09:21:43;41.57;;;24.67;;
5171;SDS011;2605;49.770;9.868;2022-12-15T09:24:10;41.33;;;25.80;;
5171;SDS011;2605;49.770;9.868;2022-12-15T09:26:37;39.30;;;26.20;;
5171;SDS011;2605;49.770;9.868;2022-12-15T09:29:03;40.70;;;26.10;;
5171;SDS011;2605;49.770;9.868;2022-12-15T09:31:30;37.50;;;25.33;;
5171;SDS011;2605;49.770;9.868;2022-12-15T09:33:57;45.00;;;26.70;;
5171;SDS011;2605;49.770;9.868;2022-12-15T09:36:24;39.60;;;26.10;;
5171;SDS011;2605;49.770;9.868;2022-12-15T09:38:50;37.30;;;25.00;;
5171;SDS011;2605;49.770;9.868;2022-12-15T09:41:20;40.87;;;24.97;;
5171;SDS011;2605;49.770;9.868;2022-12-15T09:51:52;57.73;;;32.47;;
5171;SDS011;2605;49.770;9.868;2022-12-15T09:54:25;46.43;;;26.90;;
5171;SDS011;2605;49.770;9.868;2022-12-15T09:56:55;39.43;;;25.77;;
5171;SDS011;2605;49.770;9.868;2022-12-15T10:02:35;38.37;;;28.00;;
5171;SDS011;2605;49.770;9.868;2022-12-15T10:08:02;37.07;;;25.40;;
5171;SDS011;2605;49.770;9.868;2022-12-15T10:13:16;36.23;;;24.30;;
5171;SDS011;2605;49.770;9.868;2022-12-15T10:15:53;35.80;;;24.93;;
5171;SDS011;2605;49.770;9.868;2022-12-15T10:19:10;40.23;;;25.00;;
5171;SDS011;2605;49.770;9.868;2022-12-15T10:21:29;42.57;;;29.20;;
5171;SDS011;2605;49.770;9.868;2022-12-15T10:23:58;48.40;;;27.43;;
5171;SDS011;2605;49.770;9.868;2022-12-15T10:26:55;40.37;;;27.03;;
5171;SDS011;2605;49.770;9.868;2022-12-15T10:29:32;46.00;;;27.07;;
5171;SDS011;2605;49.770;9.868;2022-12-15T10:32:33;39.80;;;25.30;;
5171;SDS011;2605;49.770;9.868;2022-12-15T10:35:17;35.17;;;24.63;;
5171;SDS011;2605;49.770;9.868;2022-12-15T10:37:46;41.00;;;27.77;;
5171;SDS011;2605;49.770;9.868;2022-12-15T10:40:18;45.37;;;27.87;;
5171;SDS011;2605;49.770;9.868;2022-12-15T10:43:04;41.00;;;26.57;;
5171;SDS011;2605;49.770;9.868;2022-12-15T10:45:38;42.00;;;28.13;;
5171;SDS011;2605;49.770;9.868;2022-12-15T10:48:04;38.43;;;27.00;;
5171;SDS011;2605;49.770;9.868;2022-12-15T10:50:31;42.77;;;27.40;;
5171;SDS011;2605;49.770;9.868;2022-12-15T10:52:58;42.20;;;28.20;;
5171;SDS011;2605;49.770;9.868;2022-12-15T10:55:37;40.50;;;27.20;;
5171;SDS011;2605;49.770;9.868;2022-12-15T10:58:21;44.10;;;27.83;;
5171;SDS011;2605;49.770;9.868;2022-12-15T11:00:47;42.43;;;27.80;;
5171;SDS011;2605;49.770;9.868;2022-12-15T11:03:28;45.50;;;29.07;;
5171;SDS011;2605;49.770;9.868;2022-12-15T11:05:54;40.87;;;27.67;;
5171;SDS011;2605;49.770;9.868;2022-12-15T11:08:20;41.17;;;29.13;;
5171;SDS011;2605;49.770;9.868;2022-12-15T11:10:49;38.70;;;26.03;;
5171;SDS011;2605;49.770;9.868;2022-12-15T11:13:36;45.03;;;29.23;;
5171;SDS011;2605;49.770;9.868;2022-12-15T11:16:15;46.53;;;33.13;;
5171;SDS011;2605;49.770;9.868;2022-12-15T11:21:18;49.10;;;29.80;;
5171;SDS011;2605;49.770;9.868;2022-12-15T11:23:57;44.60;;;28.53;;
5171;SDS011;2605;49.770;9.868;2022-12-15T11:27:15;44.40;;;29.43;;
5171;SDS011;2605;49.770;9.868;2022-12-15T11:31:47;44.17;;;30.03;;
5171;SDS011;2605;49.770;9.868;2022-12-15T11:34:24;43.93;;;29.10;;
5171;SDS011;2605;49.770;9.868;2022-12-15T11:37:02;40.70;;;26.43;;
5171;SDS011;2605;49.770;9.868;2022-12-15T11:39:55;44.07;;;29.20;;
5171;SDS011;2605;49.770;9.868;2022-12-15T11:48:04;44.70;;;27.80;;
5171;SDS011;2605;49.770;9.868;2022-12-15T11:50:55;48.00;;;27.00;;
5171;SDS011;2605;49.770;9.868;2022-12-15T11:56:32;41.63;;;28.97;;
5171;SDS011;2605;49.770;9.868;2022-12-15T11:59:09;44.30;;;29.40;;
5171;SDS011;2605;49.770;9.868;2022-12-15T12:15:56;40.47;;;27.23;;
5171;SDS011;2605;49.770;9.868;2022-12-15T12:18:39;41.07;;;26.70;;
5171;SDS011;2605;49.770;9.868;2022-12-15T12:26:10;44.60;;;29.30;;
5171;SDS011;2605;49.770;9.868;2022-12-15T12:28:44;42.23;;;25.70;;
5171;SDS011;2605;49.770;9.868;2022-12-15T12:34:23;41.20;;;26.40;;
5171;SDS011;2605;49.770;9.868;2022-12-15T12:36:53;42.87;;;27.47;;
5171;SDS011;2605;49.770;9.868;2022-12-15T12:39:28;38.97;;;26.20;;
5171;SDS011;2605;49.770;9.868;2022-12-15T12:42:03;33.20;;;25.10;;
5171;SDS011;2605;49.770;9.868;2022-12-15T12:44:36;41.77;;;25.63;;
5171;SDS011;2605;49.770;9.868;2022-12-15T12:47:35;36.00;;;25.33;;
5171;SDS011;2605;49.770;9.868;2022-12-15T12:50:00;34.40;;;23.70;;
5171;SDS011;2605;49.770;9.868;2022-12-15T12:52:37;38.70;;;25.50;;
5171;SDS011;2605;49.770;9.868;2022-12-15T12:55:33;40.83;;;25.10;;
5171;SDS011;2605;49.770;9.868;2022-12-15T12:58:28;40.90;;;26.40;;
5171;SDS011;2605;49.770;9.868;2022-12-15T13:03:40;34.60;;;25.80;;
5171;SDS011;2605;49.770;9.868;2022-12-15T13:11:54;45.00;;;25.57;;
5171;SDS011;2605;49.770;9.868;2022-12-15T13:14:25;41.17;;;26.00;;
5171;SDS011;2605;49.770;9.868;2022-12-15T13:20:04;40.97;;;25.27;;
5171;SDS011;2605;49.770;9.868;2022-12-15T13:22:47;35.83;;;24.87;;
5171;SDS011;2605;49.770;9.868;2022-12-15T13:25:32;37.50;;;24.53;;
5171;SDS011;2605;49.770;9.868;2022-12-15T13:28:15;39.10;;;25.73;;
5171;SDS011;2605;49.770;9.868;2022-12-15T13:33:42;35.87;;;23.80;;
5171;SDS011;2605;49.770;9.868;2022-12-15T13:44:28;42.73;;;25.47;;
5171;SDS011;2605;49.770;9.868;2022-12-15T13:46:58;39.67;;;24.73;;
5171;SDS011;2605;49.770;9.868;2022-12-15T13:49:55;36.80;;;24.30;;
5171;SDS011;2605;49.770;9.868;2022-12-15T13:52:28;38.53;;;23.67;;
5171;SDS011;2605;49.770;9.868;2022-12-15T13:55:00;34.53;;;22.70;;
5171;SDS011;2605;49.770;9.868;2022-12-15T13:57:30;37.70;;;23.97;;
5171;SDS011;2605;49.770;9.868;2022-12-15T14:00:04;35.60;;;23.77;;
5171;SDS011;2605;49.770;9.868;2022-12-15T14:02:47;39.37;;;25.10;;
5171;SDS011;2605;49.770;9.868;2022-12-15T14:13:08;30.17;;;22.30;;
5171;SDS011;2605;49.770;9.868;2022-12-15T14:15:40;34.83;;;23.33;;
5171;SDS011;2605;49.770;9.868;2022-12-15T14:18:25;38.53;;;24.93;;
5171;SDS011;2605;49.770;9.868;2022-12-15T14:20:53;33.63;;;23.10;;
5171;SDS011;2605;49.770;9.868;2022-12-15T14:23:20;38.37;;;23.07;;
5171;SDS011;2605;49.770;9.868;2022-12-15T14:25:51;43.43;;;24.27;;
5171;SDS011;2605;49.770;9.868;2022-12-15T14:28:26;38.73;;;25.40;;
5171;SDS011;2605;49.770;9.868;2022-12-15T14:30:55;35.83;;;22.87;;
5171;SDS011;2605;49.770;9.868;2022-12-15T14:33:23;34.93;;;23.73;;
5171;SDS011;2605;49.770;9.868;2022-12-15T14:35:49;42.30;;;24.80;;
5171;SDS011;2605;49.770;9.868;2022-12-15T14:38:19;45.20;;;27.03;;
5171;SDS011;2605;49.770;9.868;2022-12-15T14:41:01;47.67;;;28.23;;
5171;SDS011;2605;49.770;9.868;2022-12-15T14:43:30;35.23;;;24.37;;
5171;SDS011;2605;49.770;9.868;2022-12-15T14:46:06;40.17;;;25.77;;
5171;SDS011;2605;49.770;9.868;2022-12-15T14:48:37;37.30;;;24.70;;
5171;SDS011;2605;49.770;9.868;2022-12-15T14:51:07;36.50;;;25.67;;
5171;SDS011;2605;49.770;9.868;2022-12-15T14:53:36;32.43;;;22.93;;
5171;SDS011;2605;49.770;9.868;2022-12-15T14:58:44;46.00;;;28.03;;
5171;SDS011;2605;49.770;9.868;2022-12-15T15:01:22;44.07;;;27.20;;
5171;SDS011;2605;49.770;9.868;2022-12-15T15:04:04;42.93;;;25.97;;
5171;SDS011;2605;49.770;9.868;2022-12-15T15:07:15;43.13;;;27.17;;
5171;SDS011;2605;49.770;9.868;2022-12-15T15:09:42;37.10;;;25.47;;
5171;SDS011;2605;49.770;9.868;2022-12-15T15:12:19;43.50;;;27.93;;
5171;SDS011;2605;49.770;9.868;2022-12-15T15:17:19;38.10;;;25.37;;
5171;SDS011;2605;49.770;9.868;2022-12-15T15:20:00;45.87;;;27.87;;
5171;SDS011;2605;49.770;9.868;2022-12-15T15:22:31;46.73;;;28.87;;
5171;SDS011;2605;49.770;9.868;2022-12-15T15:25:00;50.13;;;28.27;;
5171;SDS011;2605;49.770;9.868;2022-12-15T15:27:43;50.73;;;29.20;;
5171;SDS011;2605;49.770;9.868;2022-12-15T15:30:18;44.27;;;27.10;;
5171;SDS011;2605;49.770;9.868;2022-12-15T15:32:53;48.17;;;28.03;;
5171;SDS011;2605;49.770;9.868;2022-12-15T15:35:21;52.70;;;34.35;;
5171;SDS011;2605;49.770;9.868;2022-12-15T15:37:48;56.73;;;33.67;;
5171;SDS011;2605;49.770;9.868;2022-12-15T15:40:15;57.43;;;32.63;;
5171;SDS011;2605;49.770;9.868;2022-12-15T15:42:42;51.60;;;30.10;;
5171;SDS011;2605;49.770;9.868;2022-12-15T15:45:12;44.70;;;29.03;;
5171;SDS011;2605;49.770;9.868;2022-12-15T15:47:38;44.27;;;30.03;;
5171;SDS011;2605;49.770;9.868;2022-12-15T15:50:11;49.90;;;32.20;;
5171;SDS011;2605;49.770;9.868;2022-12-15T15:52:39;41.10;;;26.37;;
5171;SDS011;2605;49.770;9.868;2022-12-15T15:55:13;54.30;;;32.87;;
5171;SDS011;2605;49.770;9.868;2022-12-15T15:57:40;43.30;;;25.60;;
5171;SDS011;2605;49.770;9.868;2022-12-15T16:00:12;44.07;;;26.40;;
5171;SDS011;2605;49.770;9.868;2022-12-15T16:02:43;44.77;;;27.07;;
5171;SDS011;2605;49.770;9.868;2022-12-15T16:05:08;42.27;;;27.77;;
5171;SDS011;2605;49.770;9.868;2022-12-15T16:07:34;57.57;;;30.60;;
5171;SDS011;2605;49.770;9.868;2022-12-15T16:09:59;46.57;;;28.07;;
5171;SDS011;2605;49.770;9.868;2022-12-15T16:12:29;48.10;;;29.13;;
5171;SDS011;2605;49.770;9.868;2022-12-15T16:14:59;52.37;;;32.60;;
5171;SDS011;2605;49.770;9.868;2022-12-15T16:17:25;52.20;;;29.77;;
5171;SDS011;2605;49.770;9.868;2022-12-15T16:19:50;43.90;;;27.17;;
5171;SDS011;2605;49.770;9.868;2022-12-15T16:22:19;42.43;;;27.80;;
5171;SDS011;2605;49.770;9.868;2022-12-15T16:24:46;48.20;;;28.33;;
5171;SDS011;2605;49.770;9.868;2022-12-15T16:27:12;45.13;;;28.80;;
5171;SDS011;2605;49.770;9.868;2022-12-15T16:29:39;43.90;;;27.50;;
5171;SDS011;2605;49.770;9.868;2022-12-15T16:32:05;46.53;;;27.60;;
5171;SDS011;2605;49.770;9.868;2022-12-15T16:34:33;42.30;;;26.60;;
5171;SDS011;2605;49.770;9.868;2022-12-15T16:36:59;44.33;;;27.30;;
5171;SDS011;2605;49.770;9.868;2022-12-15T16:39:32;51.50;;;30.93;;
5171;SDS011;2605;49.770;9.868;2022-12-15T16:41:58;40.93;;;26.80;;
5171;SDS011;2605;49.770;9.868;2022-12-15T16:44:25;46.90;;;29.90;;
5171;SDS011;2605;49.770;9.868;2022-12-15T16:46:51;45.10;;;27.97;;
5171;SDS011;2605;49.770;9.868;2022-12-15T16:49:21;51.60;;;29.30;;
5171;SDS011;2605;49.770;9.868;2022-12-15T16:51:50;53.57;;;29.03;;
5171;SDS011;2605;49.770;9.868;2022-12-15T16:54:24;46.70;;;27.47;;
5171;SDS011;2605;49.770;9.868;2022-12-15T16:56:52;43.07;;;25.60;;
5171;SDS011;2605;49.770;9.868;2022-12-15T16:59:20;45.97;;;29.07;;
5171;SDS011;2605;49.770;9.868;2022-12-15T17:01:47;50.47;;;26.70;;
5171;SDS011;2605;49.770;9.868;2022-12-15T17:04:13;54.30;;;30.87;;
5171;SDS011;2605;49.770;9.868;2022-12-15T17:06:40;49.80;;;30.50;;
5171;SDS011;2605;49.770;9.868;2022-12-15T17:09:06;54.10;;;30.87;;